sensor_id;sensor_type;location;lat;lon;timestamp;pressure;altitude;pressure_sealevel;temperature;humidity
50867;BME280;36839;51.946;21.002;2023-02-19T00:01:42;99585.55;;;1.56;100.00
50867;BME280;36839;51.946;21.002;2023-02-19T00:04:17;99589.42;;;1.62;100.00
50867;BME280;36839;51.946;21.002;2023-02-19T00:06:46;99580.88;;;1.66;100.00
50867;BME280;36839;51.946;21.002;2023-02-19T00:09:15;99586.23;;;1.69;100.00
50867;BME280;36839;51.946;21.002;2023-02-19T00:11:42;99578.23;;;1.72;100.00
50867;BME280;36839;51.946;21.002;2023-02-19T00:14:14;99567.05;;;1.74;100.00
50867;BME280;36839;51.946;21.002;2023-02-19T00:16:41;99568.90;;;1.76;100.00
50867;BME280;36839;51.946;21.002;2023-02-19T00:19:13;99572.98;;;1.77;100.00
50867;BME280;36839;51.946;21.002;2023-02-19T00:21:41;99574.44;;;1.78;100.00
50867;BME280;36839;51.946;21.002;2023-02-19T00:24:10;99574.52;;;1.78;100.00
50867;BME280;36839;51.946;21.002;2023-02-19T00:26:39;99580.03;;;1.79;100.00
50867;BME280;36839;51.946;21.002;2023-02-19T00:29:08;99584.05;;;1.80;100.00
50867;BME280;36839;51.946;21.002;2023-02-19T00:31:35;99592.46;;;1.81;100.00
50867;BME280;36839;51.946;21.002;2023-02-19T00:34:04;99595.60;;;1.82;100.00
50867;BME280;36839;51.946;21.002;2023-02-19T00:36:33;99589.19;;;1.82;100.00
50867;BME280;36839;51.946;21.002;2023-02-19T00:39:05;99584.30;;;1.82;100.00
50867;BME280;36839;51.946;21.002;2023-02-19T00:41:34;99580.19;;;1.82;100.00
50867;BME280;36839;51.946;21.002;2023-02-19T00:44:07;99570.52;;;1.83;100.00
50867;BME280;36839;51.946;21.002;2023-02-19T00:46:37;99566.53;;;1.84;100.00
50867;BME280;36839;51.946;21.002;2023-02-19T00:49:06;99565.39;;;1.82;100.00
50867;BME280;36839;51.946;21.002;2023-02-19T00:51:36;99567.99;;;1.82;100.00
50867;BME280;36839;51.946;21.002;2023-02-19T00:54:05;99571.31;;;1.84;100.00
50867;BME280;36839;51.946;21.002;2023-02-19T00:56:32;99575.08;;;1.84;100.00
50867;BME280;36839;51.946;21.002;2023-02-19T00:58:59;99573.59;;;1.85;100.00
50867;BME280;36839;51.946;21.002;2023-02-19T01:01:26;99572.36;;;1.86;100.00
50867;BME280;36839;51.946;21.002;2023-02-19T01:03:53;99575.05;;;1.85;100.00
50867;BME280;36839;51.946;21.002;2023-02-19T01:06:20;99575.71;;;1.83;100.00
50867;BME280;36839;51.946;21.002;2023-02-19T01:08:49;99571.81;;;1.84;100.00
50867;BME280;36839;51.946;21.002;2023-02-19T01:11:17;99565.48;;;1.84;100.00
50867;BME280;36839;51.946;21.002;2023-02-19T01:13:45;99563.64;;;1.84;100.00
50867;BME280;36839;51.946;21.002;2023-02-19T01:16:15;99568.00;;;1.84;100.00
50867;BME280;36839;51.946;21.002;2023-02-19T01:18:46;99565.38;;;1.86;100.00
50867;BME280;36839;51.946;21.002;2023-02-19T01:21:19;99563.23;;;1.85;100.00
50867;BME280;36839;51.946;21.002;2023-02-19T01:23:51;99561.70;;;1.85;100.00
50867;BME280;36839;51.946;21.002;2023-02-19T01:26:23;99561.96;;;1.84;100.00
50867;BME280;36839;51.946;21.002;2023-02-19T01:28:51;99559.75;;;1.83;100.00
50867;BME280;36839;51.946;21.002;2023-02-19T01:31:19;99563.98;;;1.84;100.00
50867;BME280;36839;51.946;21.002;2023-02-19T01:33:48;99566.94;;;1.85;100.00
50867;BME280;36839;51.946;21.002;2023-02-19T01:36:16;99562.36;;;1.85;100.00
50867;BME280;36839;51.946;21.002;2023-02-19T01:38:46;99560.33;;;1.84;100.00
50867;BME280;36839;51.946;21.002;2023-02-19T01:41:16;99564.59;;;1.85;100.00
50867;BME280;36839;51.946;21.002;2023-02-19T01:44:03;99559.98;;;1.84;100.00
50867;BME280;36839;51.946;21.002;2023-02-19T01:46:35;99563.20;;;1.86;100.00
50867;BME280;36839;51.946;21.002;2023-02-19T01:49:09;99568.23;;;1.85;100.00
50867;BME280;36839;51.946;21.002;2023-02-19T01:51:42;99570.09;;;1.85;100.00
50867;BME280;36839;51.946;21.002;2023-02-19T01:54:12;99567.20;;;1.85;100.00
50867;BME280;36839;51.946;21.002;2023-02-19T01:56:43;99572.43;;;1.85;100.00
50867;BME280;36839;51.946;21.002;2023-02-19T01:59:12;99567.13;;;1.84;100.00
50867;BME280;36839;51.946;21.002;2023-02-19T02:01:40;99559.50;;;1.84;100.00
50867;BME280;36839;51.946;21.002;2023-02-19T02:04:08;99565.84;;;1.83;100.00
50867;BME280;36839;51.946;21.002;2023-02-19T02:06:44;99564.80;;;1.82;100.00
50867;BME280;36839;51.946;21.002;2023-02-19T02:09:15;99567.50;;;1.84;100.00
50867;BME280;36839;51.946;21.002;2023-02-19T02:12:01;99561.47;;;1.82;100.00
50867;BME280;36839;51.946;21.002;2023-02-19T02:14:32;99561.77;;;1.81;100.00
50867;BME280;36839;51.946;21.002;2023-02-19T02:17:19;99557.29;;;1.80;100.00
50867;BME280;36839;51.946;21.002;2023-02-19T02:28:48;99547.77;;;1.75;100.00
50867;BME280;36839;51.946;21.002;2023-02-19T02:34:33;99543.92;;;1.74;100.00
50867;BME280;36839;51.946;21.002;2023-02-19T02:37:06;99547.96;;;1.75;100.00
50867;BME280;36839;51.946;21.002;2023-02-19T02:39:36;99548.52;;;1.75;100.00
50867;BME280;36839;51.946;21.002;2023-02-19T02:42:04;99552.05;;;1.74;100.00
50867;BME280;36839;51.946;21.002;2023-02-19T02:44:50;99547.08;;;1.74;100.00
50867;BME280;36839;51.946;21.002;2023-02-19T02:47:46;99544.94;;;1.73;100.00
50867;BME280;36839;51.946;21.002;2023-02-19T02:50:21;99543.14;;;1.73;100.00
50867;BME280;36839;51.946;21.002;2023-02-19T02:52:55;99546.13;;;1.73;100.00
50867;BME280;36839;51.946;21.002;2023-02-19T02:55:49;99541.81;;;1.72;100.00
50867;BME280;36839;51.946;21.002;2023-02-19T02:58:19;99544.52;;;1.74;100.00
50867;BME280;36839;51.946;21.002;2023-02-19T03:01:00;99540.11;;;1.74;100.00
50867;BME280;36839;51.946;21.002;2023-02-19T03:03:51;99535.92;;;1.74;100.00
50867;BME280;36839;51.946;21.002;2023-02-19T03:06:21;99534.55;;;1.74;100.00
50867;BME280;36839;51.946;21.002;2023-02-19T03:08:52;99527.98;;;1.73;100.00
50867;BME280;36839;51.946;21.002;2023-02-19T03:11:22;99524.77;;;1.72;100.00
50867;BME280;36839;51.946;21.002;2023-02-19T03:14:38;99525.98;;;1.71;100.00
50867;BME280;36839;51.946;21.002;2023-02-19T03:17:44;99529.76;;;1.71;100.00
50867;BME280;36839;51.946;21.002;2023-02-19T03:20:36;99527.48;;;1.68;100.00
50867;BME280;36839;51.946;21.002;2023-02-19T03:23:06;99526.46;;;1.69;100.00
50867;BME280;36839;51.946;21.002;2023-02-19T03:25:37;99532.59;;;1.68;100.00
50867;BME280;36839;51.946;21.002;2023-02-19T03:28:27;99530.86;;;1.67;100.00
50867;BME280;36839;51.946;21.002;2023-02-19T03:31:20;99535.40;;;1.65;100.00
50867;BME280;36839;51.946;21.002;2023-02-19T03:33:52;99534.58;;;1.65;100.00
50867;BME280;36839;51.946;21.002;2023-02-19T03:36:22;99534.83;;;1.64;100.00
50867;BME280;36839;51.946;21.002;2023-02-19T03:39:05;99528.55;;;1.64;100.00
50867;BME280;36839;51.946;21.002;2023-02-19T03:41:34;99522.42;;;1.65;100.00
50867;BME280;36839;51.946;21.002;2023-02-19T03:44:24;99517.95;;;1.64;100.00
50867;BME280;36839;51.946;21.002;2023-02-19T03:49:40;99520.74;;;1.63;100.00
50867;BME280;36839;51.946;21.002;2023-02-19T03:55:10;99518.95;;;1.62;100.00
50867;BME280;36839;51.946;21.002;2023-02-19T03:57:48;99515.11;;;1.61;100.00
50867;BME280;36839;51.946;21.002;2023-02-19T04:00:22;99514.86;;;1.62;100.00
50867;BME280;36839;51.946;21.002;2023-02-19T04:03:00;99512.05;;;1.61;100.00
50867;BME280;36839;51.946;21.002;2023-02-19T04:05:35;99509.88;;;1.60;100.00
50867;BME280;36839;51.946;21.002;2023-02-19T04:08:09;99511.42;;;1.61;100.00
50867;BME280;36839;51.946;21.002;2023-02-19T04:10:38;99498.49;;;1.60;100.00
50867;BME280;36839;51.946;21.002;2023-02-19T04:13:14;99498.65;;;1.60;100.00
50867;BME280;36839;51.946;21.002;2023-02-19T04:15:44;99501.59;;;1.60;100.00
50867;BME280;36839;51.946;21.002;2023-02-19T04:18:19;99494.41;;;1.60;100.00
50867;BME280;36839;51.946;21.002;2023-02-19T04:20:48;99491.08;;;1.61;100.00
50867;BME280;36839;51.946;21.002;2023-02-19T04:23:19;99496.36;;;1.59;100.00
50867;BME280;36839;51.946;21.002;2023-02-19T04:25:55;99489.05;;;1.59;100.00
50867;BME280;36839;51.946;21.002;2023-02-19T04:28:25;99490.76;;;1.59;100.00
50867;BME280;36839;51.946;21.002;2023-02-19T04:30:53;99486.16;;;1.59;100.00
50867;BME280;36839;51.946;21.002;2023-02-19T04:33:20;99482.39;;;1.58;100.00
50867;BME280;36839;51.946;21.002;2023-02-19T04:35:50;99487.93;;;1.58;100.00
50867;BME280;36839;51.946;21.002;2023-02-19T04:38:17;99486.46;;;1.58;100.00
50867;BME280;36839;51.946;21.002;2023-02-19T04:40:44;99482.56;;;1.58;100.00
50867;BME280;36839;51.946;21.002;2023-02-19T04:43:12;99476.57;;;1.58;100.00
50867;BME280;36839;51.946;21.002;2023-02-19T04:45:39;99480.39;;;1.58;100.00
50867;BME280;36839;51.946;21.002;2023-02-19T04:48:05;99484.16;;;1.57;100.00
50867;BME280;36839;51.946;21.002;2023-02-19T04:50:32;99486.25;;;1.58;100.00
50867;BME280;36839;51.946;21.002;2023-02-19T04:52:59;99486.13;;;1.58;100.00
50867;BME280;36839;51.946;21.002;2023-02-19T04:55:26;99487.52;;;1.59;100.00
50867;BME280;36839;51.946;21.002;2023-02-19T04:57:53;99485.75;;;1.57;100.00
50867;BME280;36839;51.946;21.002;2023-02-19T05:00:20;99485.83;;;1.58;100.00
50867;BME280;36839;51.946;21.002;2023-02-19T05:02:47;99486.89;;;1.60;100.00
50867;BME280;36839;51.946;21.002;2023-02-19T05:05:14;99490.38;;;1.59;100.00
50867;BME280;36839;51.946;21.002;2023-02-19T05:07:41;99491.02;;;1.60;100.00
50867;BME280;36839;51.946;21.002;2023-02-19T05:10:08;99484.42;;;1.60;100.00
50867;BME280;36839;51.946;21.002;2023-02-19T05:12:35;99480.45;;;1.59;100.00
50867;BME280;36839;51.946;21.002;2023-02-19T05:15:02;99476.69;;;1.59;100.00
50867;BME280;36839;51.946;21.002;2023-02-19T05:17:32;99470.77;;;1.59;100.00
50867;BME280;36839;51.946;21.002;2023-02-19T05:19:59;99471.08;;;1.59;100.00
50867;BME280;36839;51.946;21.002;2023-02-19T05:22:28;99466.20;;;1.57;100.00
50867;BME280;36839;51.946;21.002;2023-02-19T05:24:55;99465.88;;;1.57;100.00
50867;BME280;36839;51.946;21.002;2023-02-19T05:27:22;99464.55;;;1.56;100.00
50867;BME280;36839;51.946;21.002;2023-02-19T05:29:49;99463.93;;;1.56;100.00
50867;BME280;36839;51.946;21.002;2023-02-19T05:32:16;99463.08;;;1.54;100.00
50867;BME280;36839;51.946;21.002;2023-02-19T05:34:42;99457.77;;;1.52;100.00
50867;BME280;36839;51.946;21.002;2023-02-19T05:37:09;99450.64;;;1.50;100.00
50867;BME280;36839;51.946;21.002;2023-02-19T05:39:37;99450.73;;;1.49;100.00
50867;BME280;36839;51.946;21.002;2023-02-19T05:42:04;99455.35;;;1.49;100.00
50867;BME280;36839;51.946;21.002;2023-02-19T05:44:31;99445.92;;;1.49;100.00
50867;BME280;36839;51.946;21.002;2023-02-19T05:46:58;99440.23;;;1.47;100.00
50867;BME280;36839;51.946;21.002;2023-02-19T05:49:24;99437.32;;;1.46;100.00
50867;BME280;36839;51.946;21.002;2023-02-19T05:51:52;99432.25;;;1.46;100.00
50867;BME280;36839;51.946;21.002;2023-02-19T05:54:20;99430.48;;;1.44;100.00
50867;BME280;36839;51.946;21.002;2023-02-19T05:56:47;99430.75;;;1.42;100.00
50867;BME280;36839;51.946;21.002;2023-02-19T05:59:15;99436.76;;;1.42;100.00
50867;BME280;36839;51.946;21.002;2023-02-19T06:01:42;99438.82;;;1.41;100.00
50867;BME280;36839;51.946;21.002;2023-02-19T06:04:12;99440.63;;;1.42;100.00
50867;BME280;36839;51.946;21.002;2023-02-19T06:06:42;99442.42;;;1.42;100.00
50867;BME280;36839;51.946;21.002;2023-02-19T06:09:10;99449.20;;;1.42;100.00
50867;BME280;36839;51.946;21.002;2023-02-19T06:11:38;99454.64;;;1.44;100.00
50867;BME280;36839;51.946;21.002;2023-02-19T06:14:05;99461.77;;;1.44;100.00
50867;BME280;36839;51.946;21.002;2023-02-19T06:16:33;99463.37;;;1.45;100.00
50867;BME280;36839;51.946;21.002;2023-02-19T06:19:03;99467.06;;;1.45;100.00
50867;BME280;36839;51.946;21.002;2023-02-19T06:21:30;99465.30;;;1.44;100.00
50867;BME280;36839;51.946;21.002;2023-02-19T06:24:03;99470.14;;;1.46;100.00
50867;BME280;36839;51.946;21.002;2023-02-19T06:26:30;99475.67;;;1.47;100.00
50867;BME280;36839;51.946;21.002;2023-02-19T06:28:57;99478.11;;;1.49;100.00
50867;BME280;36839;51.946;21.002;2023-02-19T06:31:24;99481.55;;;1.50;100.00
50867;BME280;36839;51.946;21.002;2023-02-19T06:33:51;99487.73;;;1.51;100.00
50867;BME280;36839;51.946;21.002;2023-02-19T06:36:19;99486.85;;;1.52;100.00
50867;BME280;36839;51.946;21.002;2023-02-19T06:38:47;99485.67;;;1.52;100.00
50867;BME280;36839;51.946;21.002;2023-02-19T06:41:14;99482.86;;;1.55;100.00
50867;BME280;36839;51.946;21.002;2023-02-19T06:43:41;99482.59;;;1.57;100.00
50867;BME280;36839;51.946;21.002;2023-02-19T06:46:10;99481.88;;;1.59;100.00
50867;BME280;36839;51.946;21.002;2023-02-19T06:48:40;99481.08;;;1.63;100.00
50867;BME280;36839;51.946;21.002;2023-02-19T06:51:08;99477.25;;;1.67;100.00
50867;BME280;36839;51.946;21.002;2023-02-19T06:53:36;99472.01;;;1.70;100.00
50867;BME280;36839;51.946;21.002;2023-02-19T06:58:56;99484.60;;;1.81;100.00
50867;BME280;36839;51.946;21.002;2023-02-19T07:01:23;99481.53;;;1.84;100.00
50867;BME280;36839;51.946;21.002;2023-02-19T07:03:51;99492.61;;;1.85;100.00
50867;BME280;36839;51.946;21.002;2023-02-19T07:06:22;99492.76;;;1.87;100.00
50867;BME280;36839;51.946;21.002;2023-02-19T07:08:50;99489.91;;;1.87;100.00
50867;BME280;36839;51.946;21.002;2023-02-19T07:11:18;99494.89;;;1.85;100.00
50867;BME280;36839;51.946;21.002;2023-02-19T07:13:45;99501.23;;;1.86;100.00
50867;BME280;36839;51.946;21.002;2023-02-19T07:16:13;99499.59;;;1.84;100.00
50867;BME280;36839;51.946;21.002;2023-02-19T07:18:40;99496.48;;;1.82;100.00
50867;BME280;36839;51.946;21.002;2023-02-19T07:21:10;99491.31;;;1.83;100.00
50867;BME280;36839;51.946;21.002;2023-02-19T07:23:37;99491.38;;;1.87;100.00
50867;BME280;36839;51.946;21.002;2023-02-19T07:26:11;99498.04;;;1.85;100.00
50867;BME280;36839;51.946;21.002;2023-02-19T07:28:44;99496.73;;;1.85;100.00
50867;BME280;36839;51.946;21.002;2023-02-19T07:31:12;99496.95;;;1.90;100.00
50867;BME280;36839;51.946;21.002;2023-02-19T07:33:41;99497.10;;;1.92;100.00
50867;BME280;36839;51.946;21.002;2023-02-19T07:36:09;99492.11;;;1.95;100.00
50867;BME280;36839;51.946;21.002;2023-02-19T07:38:37;99491.39;;;1.97;100.00
50867;BME280;36839;51.946;21.002;2023-02-19T07:41:05;99494.19;;;1.98;100.00
50867;BME280;36839;51.946;21.002;2023-02-19T07:43:34;99486.98;;;1.97;100.00
50867;BME280;36839;51.946;21.002;2023-02-19T07:46:10;99492.08;;;1.98;100.00
50867;BME280;36839;51.946;21.002;2023-02-19T07:48:39;99493.17;;;1.98;100.00
50867;BME280;36839;51.946;21.002;2023-02-19T07:51:09;99499.38;;;1.99;100.00
50867;BME280;36839;51.946;21.002;2023-02-19T07:53:37;99499.85;;;2.01;100.00
50867;BME280;36839;51.946;21.002;2023-02-19T07:56:12;99500.61;;;2.04;100.00
50867;BME280;36839;51.946;21.002;2023-02-19T07:58:40;99503.36;;;2.02;100.00
50867;BME280;36839;51.946;21.002;2023-02-19T08:01:13;99507.05;;;2.04;100.00
50867;BME280;36839;51.946;21.002;2023-02-19T08:03:42;99506.69;;;2.05;100.00
50867;BME280;36839;51.946;21.002;2023-02-19T08:06:10;99505.41;;;2.07;100.00
50867;BME280;36839;51.946;21.002;2023-02-19T08:08:38;99503.24;;;2.10;100.00
50867;BME280;36839;51.946;21.002;2023-02-19T08:11:06;99507.88;;;2.11;100.00
50867;BME280;36839;51.946;21.002;2023-02-19T08:13:52;99512.67;;;2.13;100.00
50867;BME280;36839;51.946;21.002;2023-02-19T08:16:20;99516.98;;;2.17;100.00
50867;BME280;36839;51.946;21.002;2023-02-19T08:18:47;99521.97;;;2.18;100.00
50867;BME280;36839;51.946;21.002;2023-02-19T08:21:15;99519.88;;;2.18;100.00
50867;BME280;36839;51.946;21.002;2023-02-19T08:23:44;99521.28;;;2.19;100.00
50867;BME280;36839;51.946;21.002;2023-02-19T08:26:13;99522.00;;;2.24;100.00
50867;BME280;36839;51.946;21.002;2023-02-19T08:28:41;99521.17;;;2.26;100.00
50867;BME280;36839;51.946;21.002;2023-02-19T08:31:09;99520.67;;;2.32;100.00
50867;BME280;36839;51.946;21.002;2023-02-19T08:33:37;99522.05;;;2.37;100.00
50867;BME280;36839;51.946;21.002;2023-02-19T08:36:06;99523.63;;;2.41;100.00
50867;BME280;36839;51.946;21.002;2023-02-19T08:38:35;99532.87;;;2.44;100.00
50867;BME280;36839;51.946;21.002;2023-02-19T08:41:03;99531.19;;;2.42;100.00
50867;BME280;36839;51.946;21.002;2023-02-19T08:43:29;99538.09;;;2.46;100.00
50867;BME280;36839;51.946;21.002;2023-02-19T08:45:56;99533.15;;;2.45;100.00
50867;BME280;36839;51.946;21.002;2023-02-19T08:48:23;99531.88;;;2.46;100.00
50867;BME280;36839;51.946;21.002;2023-02-19T08:50:59;99535.61;;;2.49;100.00
50867;BME280;36839;51.946;21.002;2023-02-19T08:53:32;99540.16;;;2.48;100.00
50867;BME280;36839;51.946;21.002;2023-02-19T08:56:12;99535.70;;;2.48;100.00
50867;BME280;36839;51.946;21.002;2023-02-19T08:58:39;99536.90;;;2.57;100.00
50867;BME280;36839;51.946;21.002;2023-02-19T09:01:12;99539.39;;;2.67;100.00
50867;BME280;36839;51.946;21.002;2023-02-19T09:03:40;99538.44;;;2.66;100.00
50867;BME280;36839;51.946;21.002;2023-02-19T09:06:13;99534.91;;;2.69;100.00
50867;BME280;36839;51.946;21.002;2023-02-19T09:08:40;99517.56;;;2.74;100.00
50867;BME280;36839;51.946;21.002;2023-02-19T09:11:07;99517.27;;;2.84;100.00
50867;BME280;36839;51.946;21.002;2023-02-19T09:13:37;99511.08;;;2.92;100.00
50867;BME280;36839;51.946;21.002;2023-02-19T09:16:04;99510.60;;;2.93;100.00
50867;BME280;36839;51.946;21.002;2023-02-19T09:18:31;99512.81;;;2.97;100.00
50867;BME280;36839;51.946;21.002;2023-02-19T09:21:00;99509.76;;;3.00;100.00
50867;BME280;36839;51.946;21.002;2023-02-19T09:23:28;99515.79;;;3.01;100.00
50867;BME280;36839;51.946;21.002;2023-02-19T09:25:58;99518.71;;;3.04;100.00
50867;BME280;36839;51.946;21.002;2023-02-19T09:28:26;99530.05;;;2.99;100.00
50867;BME280;36839;51.946;21.002;2023-02-19T09:30:53;99526.77;;;2.92;100.00
50867;BME280;36839;51.946;21.002;2023-02-19T09:33:21;99531.07;;;2.82;100.00
50867;BME280;36839;51.946;21.002;2023-02-19T09:35:48;99527.00;;;2.75;100.00
50867;BME280;36839;51.946;21.002;2023-02-19T09:38:15;99528.23;;;2.70;100.00
50867;BME280;36839;51.946;21.002;2023-02-19T09:40:42;99529.74;;;2.63;100.00
50867;BME280;36839;51.946;21.002;2023-02-19T09:43:16;99524.77;;;2.72;100.00
50867;BME280;36839;51.946;21.002;2023-02-19T09:45:45;99530.15;;;2.87;100.00
50867;BME280;36839;51.946;21.002;2023-02-19T09:48:12;99529.73;;;2.92;100.00
50867;BME280;36839;51.946;21.002;2023-02-19T09:50:43;99530.21;;;2.99;100.00
50867;BME280;36839;51.946;21.002;2023-02-19T09:53:21;99534.82;;;3.07;100.00
50867;BME280;36839;51.946;21.002;2023-02-19T09:55:50;99541.05;;;3.03;100.00
50867;BME280;36839;51.946;21.002;2023-02-19T09:58:30;99539.11;;;3.11;100.00
50867;BME280;36839;51.946;21.002;2023-02-19T10:01:01;99540.31;;;3.11;100.00
50867;BME280;36839;51.946;21.002;2023-02-19T10:03:32;99537.59;;;3.06;100.00
50867;BME280;36839;51.946;21.002;2023-02-19T10:06:05;99551.77;;;3.06;100.00
50867;BME280;36839;51.946;21.002;2023-02-19T10:08:34;99541.16;;;3.05;100.00
50867;BME280;36839;51.946;21.002;2023-02-19T10:11:02;99546.23;;;3.11;100.00
50867;BME280;36839;51.946;21.002;2023-02-19T10:13:35;99541.15;;;3.20;100.00
50867;BME280;36839;51.946;21.002;2023-02-19T10:16:06;99542.04;;;3.25;100.00
50867;BME280;36839;51.946;21.002;2023-02-19T10:18:41;99537.20;;;3.33;100.00
50867;BME280;36839;51.946;21.002;2023-02-19T10:21:30;99549.27;;;3.41;100.00
50867;BME280;36839;51.946;21.002;2023-02-19T10:24:00;99543.66;;;3.47;100.00
50867;BME280;36839;51.946;21.002;2023-02-19T10:26:30;99548.19;;;3.45;100.00
50867;BME280;36839;51.946;21.002;2023-02-19T10:29:04;99548.29;;;3.46;100.00
50867;BME280;36839;51.946;21.002;2023-02-19T10:31:32;99550.22;;;3.45;100.00
50867;BME280;36839;51.946;21.002;2023-02-19T10:34:00;99548.78;;;3.49;100.00
50867;BME280;36839;51.946;21.002;2023-02-19T10:36:39;99551.17;;;3.49;100.00
50867;BME280;36839;51.946;21.002;2023-02-19T10:41:50;99555.91;;;3.51;100.00
50867;BME280;36839;51.946;21.002;2023-02-19T10:44:36;99552.42;;;3.61;100.00
50867;BME280;36839;51.946;21.002;2023-02-19T10:47:05;99557.23;;;3.69;100.00
50867;BME280;36839;51.946;21.002;2023-02-19T10:49:36;99553.92;;;3.79;100.00
50867;BME280;36839;51.946;21.002;2023-02-19T10:52:27;99553.96;;;3.89;100.00
50867;BME280;36839;51.946;21.002;2023-02-19T10:55:12;99563.19;;;3.86;100.00
50867;BME280;36839;51.946;21.002;2023-02-19T10:57:45;99569.83;;;3.74;100.00
50867;BME280;36839;51.946;21.002;2023-02-19T11:00:31;99575.65;;;3.54;100.00
50867;BME280;36839;51.946;21.002;2023-02-19T11:03:18;99572.54;;;3.41;100.00
50867;BME280;36839;51.946;21.002;2023-02-19T11:06:01;99566.55;;;3.40;100.00
50867;BME280;36839;51.946;21.002;2023-02-19T11:08:45;99571.45;;;3.45;100.00
50867;BME280;36839;51.946;21.002;2023-02-19T11:14:22;99565.36;;;3.56;100.00
50867;BME280;36839;51.946;21.002;2023-02-19T11:16:53;99570.73;;;3.69;100.00
50867;BME280;36839;51.946;21.002;2023-02-19T11:19:35;99566.87;;;3.81;100.00
50867;BME280;36839;51.946;21.002;2023-02-19T11:22:30;99575.94;;;3.75;100.00
50867;BME280;36839;51.946;21.002;2023-02-19T11:27:56;99583.40;;;3.69;100.00
50867;BME280;36839;51.946;21.002;2023-02-19T11:33:01;99572.98;;;3.70;100.00
50867;BME280;36839;51.946;21.002;2023-02-19T11:35:39;99579.36;;;3.70;100.00
50867;BME280;36839;51.946;21.002;2023-02-19T11:38:09;99577.65;;;3.74;100.00
50867;BME280;36839;51.946;21.002;2023-02-19T11:40:41;99579.84;;;3.77;100.00
50867;BME280;36839;51.946;21.002;2023-02-19T11:43:45;99577.96;;;3.76;100.00
50867;BME280;36839;51.946;21.002;2023-02-19T11:54:34;99587.30;;;4.02;100.00
50867;BME280;36839;51.946;21.002;2023-02-19T12:11:10;99601.80;;;4.10;100.00
50867;BME280;36839;51.946;21.002;2023-02-19T12:16:32;99604.21;;;3.90;100.00
50867;BME280;36839;51.946;21.002;2023-02-19T12:27:29;99598.14;;;4.23;100.00
50867;BME280;36839;51.946;21.002;2023-02-19T12:30:28;99594.52;;;4.31;100.00
50867;BME280;36839;51.946;21.002;2023-02-19T12:33:36;99601.95;;;4.36;100.00
50867;BME280;36839;51.946;21.002;2023-02-19T12:36:25;99600.52;;;4.22;100.00
50867;BME280;36839;51.946;21.002;2023-02-19T12:41:59;99619.67;;;4.18;100.00
50867;BME280;36839;51.946;21.002;2023-02-19T12:47:19;99631.81;;;4.12;100.00
50867;BME280;36839;51.946;21.002;2023-02-19T12:50:26;99635.48;;;4.15;100.00
50867;BME280;36839;51.946;21.002;2023-02-19T12:53:11;99646.09;;;4.18;100.00
50867;BME280;36839;51.946;21.002;2023-02-19T12:55:43;99656.55;;;4.06;99.89
50867;BME280;36839;51.946;21.002;2023-02-19T12:58:37;99654.65;;;3.98;99.94
50867;BME280;36839;51.946;21.002;2023-02-19T13:01:12;99653.98;;;3.95;100.00
50867;BME280;36839;51.946;21.002;2023-02-19T13:04:23;99649.34;;;3.96;100.00
50867;BME280;36839;51.946;21.002;2023-02-19T13:09:54;99654.70;;;3.98;98.50
50867;BME280;36839;51.946;21.002;2023-02-19T13:12:33;99659.27;;;3.92;99.96
50867;BME280;36839;51.946;21.002;2023-02-19T13:15:12;99668.90;;;3.85;100.00
50867;BME280;36839;51.946;21.002;2023-02-19T13:17:44;99660.84;;;3.79;100.00
50867;BME280;36839;51.946;21.002;2023-02-19T13:20:41;99660.67;;;3.76;100.00
50867;BME280;36839;51.946;21.002;2023-02-19T13:23:37;99663.20;;;3.74;100.00
50867;BME280;36839;51.946;21.002;2023-02-19T13:26:53;99663.50;;;3.68;100.00
50867;BME280;36839;51.946;21.002;2023-02-19T13:29:51;99671.28;;;3.62;100.00
50867;BME280;36839;51.946;21.002;2023-02-19T13:35:27;99673.21;;;3.53;100.00
50867;BME280;36839;51.946;21.002;2023-02-19T13:38:00;99670.44;;;3.50;100.00
50867;BME280;36839;51.946;21.002;2023-02-19T13:40:33;99673.78;;;3.52;100.00
50867;BME280;36839;51.946;21.002;2023-02-19T13:43:34;99676.81;;;3.53;100.00
50867;BME280;36839;51.946;21.002;2023-02-19T13:46:09;99685.45;;;3.56;100.00
50867;BME280;36839;51.946;21.002;2023-02-19T13:48:40;99683.44;;;3.61;100.00
50867;BME280;36839;51.946;21.002;2023-02-19T13:53:57;99693.31;;;3.65;100.00
50867;BME280;36839;51.946;21.002;2023-02-19T13:59:38;99710.83;;;3.69;100.00
50867;BME280;36839;51.946;21.002;2023-02-19T14:02:13;99706.65;;;3.80;100.00
50867;BME280;36839;51.946;21.002;2023-02-19T14:10:01;99712.73;;;3.94;100.00
50867;BME280;36839;51.946;21.002;2023-02-19T14:12:33;99719.59;;;4.09;100.00
50867;BME280;36839;51.946;21.002;2023-02-19T14:17:54;99717.84;;;4.19;100.00
50867;BME280;36839;51.946;21.002;2023-02-19T14:20:39;99722.90;;;4.18;100.00
50867;BME280;36839;51.946;21.002;2023-02-19T14:23:22;99731.34;;;4.17;99.70
50867;BME280;36839;51.946;21.002;2023-02-19T14:25:56;99723.13;;;4.09;99.78
50867;BME280;36839;51.946;21.002;2023-02-19T14:28:35;99727.61;;;4.05;99.91
50867;BME280;36839;51.946;21.002;2023-02-19T14:31:25;99728.52;;;4.03;100.00
50867;BME280;36839;51.946;21.002;2023-02-19T14:34:15;99734.27;;;4.00;99.48
50867;BME280;36839;51.946;21.002;2023-02-19T14:36:57;99729.21;;;4.05;99.47
50867;BME280;36839;51.946;21.002;2023-02-19T14:39:29;99737.92;;;3.95;98.43
50867;BME280;36839;51.946;21.002;2023-02-19T14:42:05;99735.80;;;3.88;98.01
50867;BME280;36839;51.946;21.002;2023-02-19T14:47:19;99734.80;;;3.86;98.58
50867;BME280;36839;51.946;21.002;2023-02-19T14:49:54;99743.15;;;3.86;98.72
50867;BME280;36839;51.946;21.002;2023-02-19T14:52:35;99747.02;;;3.78;94.56
50867;BME280;36839;51.946;21.002;2023-02-19T14:55:07;99746.54;;;3.73;92.49